sensor_id;sensor_type;location;lat;lon;timestamp;pressure;altitude;pressure_sealevel;temperature;humidity
34454;BME280;60061;52.080;5.312;2022-12-07T00:00:27;101775.0;;;3.97;100.0
34454;BME280;60061;52.080;5.312;2022-12-07T00:03:41;101775.0;;;4.0;100.0
34454;BME280;60061;52.080;5.312;2022-12-07T00:05:17;101780.0;;;3.97;100.0
34454;BME280;60061;52.080;5.312;2022-12-07T00:06:53;101781.0;;;3.96;100.0
34454;BME280;60061;52.080;5.312;2022-12-07T00:10:07;101774.0;;;3.99;100.0
34454;BME280;60061;52.080;5.312;2022-12-07T00:11:48;101776.0;;;4.04;100.0
34454;BME280;60061;52.080;5.312;2022-12-07T00:13:25;101778.0;;;3.96;100.0
34454;BME280;60061;52.080;5.312;2022-12-07T00:15:02;101772.0;;;3.89;100.0
34454;BME280;60061;52.080;5.312;2022-12-07T00:18:16;101778.0;;;3.89;100.0
34454;BME280;60061;52.080;5.312;2022-12-07T00:19:52;101768.0;;;3.91;100.0
34454;BME280;60061;52.080;5.312;2022-12-07T00:21:29;101771.0;;;3.88;100.0
34454;BME280;60061;52.080;5.312;2022-12-07T00:24:43;101771.0;;;3.92;100.0
34454;BME280;60061;52.080;5.312;2022-12-07T00:26:21;101772.0;;;3.87;100.0
34454;BME280;60061;52.080;5.312;2022-12-07T00:27:58;101766.0;;;3.95;100.0
34454;BME280;60061;52.080;5.312;2022-12-07T00:29:34;101772.0;;;3.87;100.0
34454;BME280;60061;52.080;5.312;2022-12-07T00:32:48;101767.0;;;3.72;100.0
34454;BME280;60061;52.080;5.312;2022-12-07T00:34:24;101762.0;;;3.78;100.0
34454;BME280;60061;52.080;5.312;2022-12-07T00:36:02;101757.0;;;3.75;100.0
34454;BME280;60061;52.080;5.312;2022-12-07T00:39:15;101762.0;;;3.83;100.0
34454;BME280;60061;52.080;5.312;2022-12-07T00:40:55;101759.0;;;3.74;100.0
34454;BME280;60061;52.080;5.312;2022-12-07T00:42:32;101758.0;;;3.69;100.0
34454;BME280;60061;52.080;5.312;2022-12-07T00:47:21;101752.0;;;3.71;100.0
34454;BME280;60061;52.080;5.312;2022-12-07T00:48:57;101746.0;;;3.66;100.0
34454;BME280;60061;52.080;5.312;2022-12-07T00:50:33;101741.0;;;3.54;100.0
34454;BME280;60061;52.080;5.312;2022-12-07T00:53:45;101745.0;;;3.44;100.0
34454;BME280;60061;52.080;5.312;2022-12-07T00:55:23;101741.0;;;3.41;100.0
34454;BME280;60061;52.080;5.312;2022-12-07T00:56:59;101742.0;;;3.5;100.0
34454;BME280;60061;52.080;5.312;2022-12-07T01:00:11;101744.0;;;3.44;100.0
34454;BME280;60061;52.080;5.312;2022-12-07T01:01:48;101743.0;;;3.44;100.0
34454;BME280;60061;52.080;5.312;2022-12-07T01:03:24;101745.0;;;3.51;100.0
34454;BME280;60061;52.080;5.312;2022-12-07T01:06:38;101741.0;;;3.59;100.0
34454;BME280;60061;52.080;5.312;2022-12-07T01:08:14;101739.0;;;3.38;100.0
34454;BME280;60061;52.080;5.312;2022-12-07T01:09:50;101739.0;;;3.37;100.0
34454;BME280;60061;52.080;5.312;2022-12-07T01:11:28;101739.0;;;3.25;100.0
34454;BME280;60061;52.080;5.312;2022-12-07T01:16:19;101748.0;;;3.24;100.0
34454;BME280;60061;52.080;5.312;2022-12-07T01:17:56;101745.0;;;3.25;100.0
34454;BME280;60061;52.080;5.312;2022-12-07T01:21:11;101750.0;;;3.1;100.0
34454;BME280;60061;52.080;5.312;2022-12-07T01:22:47;101755.0;;;3.23;100.0
34454;BME280;60061;52.080;5.312;2022-12-07T01:24:24;101761.0;;;3.12;100.0
34454;BME280;60061;52.080;5.312;2022-12-07T01:26:02;101753.0;;;3.14;100.0
34454;BME280;60061;52.080;5.312;2022-12-07T01:29:15;101755.0;;;3.12;100.0
34454;BME280;60061;52.080;5.312;2022-12-07T01:30:56;101750.0;;;3.14;100.0
34454;BME280;60061;52.080;5.312;2022-12-07T01:32:33;101750.0;;;3.1;100.0
34454;BME280;60061;52.080;5.312;2022-12-07T01:35:46;101745.0;;;3.03;100.0
34454;BME280;60061;52.080;5.312;2022-12-07T01:37:22;101749.0;;;2.93;100.0
34454;BME280;60061;52.080;5.312;2022-12-07T01:39:00;101753.0;;;2.92;100.0
34454;BME280;60061;52.080;5.312;2022-12-07T01:40:36;101744.0;;;2.97;100.0
34454;BME280;60061;52.080;5.312;2022-12-07T01:44:22;101753.0;;;2.86;100.0
34454;BME280;60061;52.080;5.312;2022-12-07T01:45:59;101753.0;;;2.8;100.0
34454;BME280;60061;52.080;5.312;2022-12-07T01:47:39;101750.0;;;2.83;100.0
34454;BME280;60061;52.080;5.312;2022-12-07T01:49:22;101747.0;;;2.73;100.0
34454;BME280;60061;52.080;5.312;2022-12-07T01:52:43;101750.0;;;2.74;100.0
34454;BME280;60061;52.080;5.312;2022-12-07T01:54:25;101747.0;;;2.67;100.0
34454;BME280;60061;52.080;5.312;2022-12-07T01:56:02;101747.0;;;2.65;100.0
34454;BME280;60061;52.080;5.312;2022-12-07T01:57:40;101752.0;;;2.59;100.0
34454;BME280;60061;52.080;5.312;2022-12-07T02:00:59;101747.0;;;2.52;100.0
34454;BME280;60061;52.080;5.312;2022-12-07T02:02:38;101746.0;;;2.48;100.0
34454;BME280;60061;52.080;5.312;2022-12-07T02:04:18;101748.0;;;2.56;100.0
34454;BME280;60061;52.080;5.312;2022-12-07T02:05:55;101747.0;;;2.56;100.0
34454;BME280;60061;52.080;5.312;2022-12-07T02:09:14;101752.0;;;2.59;100.0
34454;BME280;60061;52.080;5.312;2022-12-07T02:10:51;101751.0;;;2.68;100.0
34454;BME280;60061;52.080;5.312;2022-12-07T02:12:27;101755.0;;;2.66;100.0
34454;BME280;60061;52.080;5.312;2022-12-07T02:14:04;101746.0;;;2.56;100.0
34454;BME280;60061;52.080;5.312;2022-12-07T02:17:46;101751.0;;;2.48;100.0
34454;BME280;60061;52.080;5.312;2022-12-07T02:19:58;101746.0;;;2.5;100.0
34454;BME280;60061;52.080;5.312;2022-12-07T02:22:22;101753.0;;;2.46;100.0
34454;BME280;60061;52.080;5.312;2022-12-07T02:24:19;101749.0;;;2.48;100.0
34454;BME280;60061;52.080;5.312;2022-12-07T02:27:09;101732.0;;;2.33;100.0
34454;BME280;60061;52.080;5.312;2022-12-07T02:29:33;101740.0;;;2.27;100.0
34454;BME280;60061;52.080;5.312;2022-12-07T02:31:15;101740.0;;;2.34;100.0
34454;BME280;60061;52.080;5.312;2022-12-07T02:32:59;101740.0;;;2.36;100.0
34454;BME280;60061;52.080;5.312;2022-12-07T02:36:27;101744.0;;;2.38;100.0
34454;BME280;60061;52.080;5.312;2022-12-07T02:38:12;101747.0;;;2.54;100.0
34454;BME280;60061;52.080;5.312;2022-12-07T02:39:56;101747.0;;;2.48;100.0
34454;BME280;60061;52.080;5.312;2022-12-07T02:41:36;101734.0;;;2.42;100.0
34454;BME280;60061;52.080;5.312;2022-12-07T02:45:01;101730.0;;;2.54;100.0
34454;BME280;60061;52.080;5.312;2022-12-07T02:46:42;101737.0;;;2.54;100.0
34454;BME280;60061;52.080;5.312;2022-12-07T02:48:20;101733.0;;;2.52;100.0
34454;BME280;60061;52.080;5.312;2022-12-07T02:49:57;101736.0;;;2.52;100.0
34454;BME280;60061;52.080;5.312;2022-12-07T02:53:32;101736.0;;;2.48;100.0
34454;BME280;60061;52.080;5.312;2022-12-07T02:55:27;101735.0;;;2.5;100.0
34454;BME280;60061;52.080;5.312;2022-12-07T02:57:14;101735.0;;;2.46;100.0
34454;BME280;60061;52.080;5.312;2022-12-07T02:59:02;101735.0;;;2.48;100.0
34454;BME280;60061;52.080;5.312;2022-12-07T03:02:51;101730.0;;;2.5;100.0
34454;BME280;60061;52.080;5.312;2022-12-07T03:04:39;101725.0;;;2.48;100.0
34454;BME280;60061;52.080;5.312;2022-12-07T03:08:08;101730.0;;;2.38;100.0
34454;BME280;60061;52.080;5.312;2022-12-07T03:09:56;101732.0;;;2.44;100.0
34454;BME280;60061;52.080;5.312;2022-12-07T03:11:44;101730.0;;;2.5;100.0
34454;BME280;60061;52.080;5.312;2022-12-07T03:13:25;101738.0;;;2.5;100.0
34454;BME280;60061;52.080;5.312;2022-12-07T03:15:07;101752.0;;;2.56;100.0
34454;BME280;60061;52.080;5.312;2022-12-07T03:18:34;101749.0;;;2.56;100.0
34454;BME280;60061;52.080;5.312;2022-12-07T03:20:17;101742.0;;;2.5;100.0
34454;BME280;60061;52.080;5.312;2022-12-07T03:22:00;101733.0;;;2.65;100.0
34454;BME280;60061;52.080;5.312;2022-12-07T03:23:40;101730.0;;;2.76;100.0
34454;BME280;60061;52.080;5.312;2022-12-07T03:25:20;101723.0;;;2.73;100.0
34454;BME280;60061;52.080;5.312;2022-12-07T03:28:51;101728.0;;;2.76;100.0
34454;BME280;60061;52.080;5.312;2022-12-07T03:30:33;101727.0;;;2.73;100.0
34454;BME280;60061;52.080;5.312;2022-12-07T03:32:16;101726.0;;;2.68;100.0
34454;BME280;60061;52.080;5.312;2022-12-07T03:34:08;101721.0;;;2.67;100.0
34454;BME280;60061;52.080;5.312;2022-12-07T03:35:53;101719.0;;;2.68;100.0
34454;BME280;60061;52.080;5.312;2022-12-07T03:39:24;101716.0;;;2.67;100.0
34454;BME280;60061;52.080;5.312;2022-12-07T03:41:05;101718.0;;;2.68;100.0
34454;BME280;60061;52.080;5.312;2022-12-07T03:42:46;101713.0;;;2.76;100.0
34454;BME280;60061;52.080;5.312;2022-12-07T03:44:23;101715.0;;;2.88;100.0
34454;BME280;60061;52.080;5.312;2022-12-07T03:47:59;101712.0;;;2.85;100.0
34454;BME280;60061;52.080;5.312;2022-12-07T03:49:43;101710.0;;;2.73;100.0
34454;BME280;60061;52.080;5.312;2022-12-07T03:51:25;101707.0;;;2.64;100.0
34454;BME280;60061;52.080;5.312;2022-12-07T03:53:09;101715.0;;;2.57;100.0
34454;BME280;60061;52.080;5.312;2022-12-07T03:54:52;101713.0;;;2.61;100.0
34454;BME280;60061;52.080;5.312;2022-12-07T03:58:14;101712.0;;;2.6;100.0
34454;BME280;60061;52.080;5.312;2022-12-07T03:59:54;101717.0;;;2.58;100.0
34454;BME280;60061;52.080;5.312;2022-12-07T04:01:32;101722.0;;;2.63;100.0
34454;BME280;60061;52.080;5.312;2022-12-07T04:03:08;101711.0;;;2.66;100.0
34454;BME280;60061;52.080;5.312;2022-12-07T04:06:21;101712.0;;;2.5;100.0
34454;BME280;60061;52.080;5.312;2022-12-07T04:07:57;101718.0;;;2.52;100.0
34454;BME280;60061;52.080;5.312;2022-12-07T04:09:33;101715.0;;;2.8;100.0
34454;BME280;60061;52.080;5.312;2022-12-07T04:12:47;101710.0;;;2.65;100.0
34454;BME280;60061;52.080;5.312;2022-12-07T04:14:23;101712.0;;;2.62;100.0
34454;BME280;60061;52.080;5.312;2022-12-07T04:15:59;101710.0;;;2.59;100.0
34454;BME280;60061;52.080;5.312;2022-12-07T04:17:35;101713.0;;;2.65;100.0
34454;BME280;60061;52.080;5.312;2022-12-07T04:20:50;101713.0;;;2.69;100.0
34454;BME280;60061;52.080;5.312;2022-12-07T04:22:26;101706.0;;;2.68;100.0
34454;BME280;60061;52.080;5.312;2022-12-07T04:24:03;101705.0;;;2.73;100.0
34454;BME280;60061;52.080;5.312;2022-12-07T04:27:16;101705.0;;;2.69;100.0
34454;BME280;60061;52.080;5.312;2022-12-07T04:28:52;101698.0;;;2.64;100.0
34454;BME280;60061;52.080;5.312;2022-12-07T04:30:29;101699.0;;;2.75;100.0
34454;BME280;60061;52.080;5.312;2022-12-07T04:33:41;101699.0;;;2.65;100.0
34454;BME280;60061;52.080;5.312;2022-12-07T04:35:17;101707.0;;;2.48;100.0
34454;BME280;60061;52.080;5.312;2022-12-07T04:36:53;101708.0;;;2.57;100.0
34454;BME280;60061;52.080;5.312;2022-12-07T04:38:29;101703.0;;;2.48;100.0
34454;BME280;60061;52.080;5.312;2022-12-07T04:41:45;101703.0;;;2.42;100.0
34454;BME280;60061;52.080;5.312;2022-12-07T04:43:21;101714.0;;;2.27;100.0
34454;BME280;60061;52.080;5.312;2022-12-07T04:44:57;101712.0;;;2.36;100.0
34454;BME280;60061;52.080;5.312;2022-12-07T04:48:09;101726.0;;;2.25;100.0
34454;BME280;60061;52.080;5.312;2022-12-07T04:49:45;101730.0;;;2.27;100.0
34454;BME280;60061;52.080;5.312;2022-12-07T04:51:23;101730.0;;;2.07;100.0
34454;BME280;60061;52.080;5.312;2022-12-07T04:54:37;101721.0;;;2.35;100.0
34454;BME280;60061;52.080;5.312;2022-12-07T04:56:14;101705.0;;;2.5;100.0
34454;BME280;60061;52.080;5.312;2022-12-07T04:57:50;101692.0;;;2.71;100.0
34454;BME280;60061;52.080;5.312;2022-12-07T04:59:27;101685.0;;;2.52;100.0
34454;BME280;60061;52.080;5.312;2022-12-07T05:02:39;101685.0;;;2.67;100.0
34454;BME280;60061;52.080;5.312;2022-12-07T05:04:16;101688.0;;;2.83;100.0
34454;BME280;60061;52.080;5.312;2022-12-07T05:05:52;101690.0;;;2.72;100.0
34454;BME280;60061;52.080;5.312;2022-12-07T05:09:05;101690.0;;;2.72;100.0
34454;BME280;60061;52.080;5.312;2022-12-07T05:10:42;101688.0;;;2.83;100.0
34454;BME280;60061;52.080;5.312;2022-12-07T05:12:18;101682.0;;;2.74;100.0
34454;BME280;60061;52.080;5.312;2022-12-07T05:15:31;101691.0;;;2.82;100.0
34454;BME280;60061;52.080;5.312;2022-12-07T05:17:07;101685.0;;;2.79;100.0
34454;BME280;60061;52.080;5.312;2022-12-07T05:18:44;101684.0;;;2.84;100.0
34454;BME280;60061;52.080;5.312;2022-12-07T05:20:20;101686.0;;;2.98;100.0
34454;BME280;60061;52.080;5.312;2022-12-07T05:23:32;101689.0;;;2.93;100.0
34454;BME280;60061;52.080;5.312;2022-12-07T05:25:08;101688.0;;;2.85;100.0
34454;BME280;60061;52.080;5.312;2022-12-07T05:26:45;101685.0;;;2.97;100.0
34454;BME280;60061;52.080;5.312;2022-12-07T05:29:58;101686.0;;;2.84;100.0
34454;BME280;60061;52.080;5.312;2022-12-07T05:31:34;101690.0;;;2.87;100.0
34454;BME280;60061;52.080;5.312;2022-12-07T05:33:10;101689.0;;;2.9;100.0
34454;BME280;60061;52.080;5.312;2022-12-07T05:36:23;101683.0;;;2.96;100.0
34454;BME280;60061;52.080;5.312;2022-12-07T05:37:59;101684.0;;;2.85;100.0
34454;BME280;60061;52.080;5.312;2022-12-07T05:39:35;101687.0;;;2.75;100.0
34454;BME280;60061;52.080;5.312;2022-12-07T05:42:12;101689.0;;;2.75;100.0
34454;BME280;60061;52.080;5.312;2022-12-07T05:43:48;101682.0;;;2.68;100.0
34454;BME280;60061;52.080;5.312;2022-12-07T05:45:24;101686.0;;;2.66;100.0
34454;BME280;60061;52.080;5.312;2022-12-07T05:48:36;101686.0;;;2.62;100.0
34454;BME280;60061;52.080;5.312;2022-12-07T05:50:12;101684.0;;;2.54;100.0
34454;BME280;60061;52.080;5.312;2022-12-07T05:51:48;101687.0;;;2.54;100.0
34454;BME280;60061;52.080;5.312;2022-12-07T05:55:01;101687.0;;;2.54;100.0
34454;BME280;60061;52.080;5.312;2022-12-07T05:56:37;101686.0;;;2.56;100.0
34454;BME280;60061;52.080;5.312;2022-12-07T05:59:30;101691.0;;;2.5;100.0
34454;BME280;60061;52.080;5.312;2022-12-07T06:01:06;101695.0;;;2.52;100.0
34454;BME280;60061;52.080;5.312;2022-12-07T06:02:43;101689.0;;;2.44;100.0
34454;BME280;60061;52.080;5.312;2022-12-07T06:04:19;101691.0;;;2.44;100.0
34454;BME280;60061;52.080;5.312;2022-12-07T06:07:32;101688.0;;;2.39;100.0
34454;BME280;60061;52.080;5.312;2022-12-07T06:09:08;101688.0;;;2.33;100.0
34454;BME280;60061;52.080;5.312;2022-12-07T06:10:47;101687.0;;;2.62;100.0
34454;BME280;60061;52.080;5.312;2022-12-07T06:14:16;101686.0;;;2.38;100.0
34454;BME280;60061;52.080;5.312;2022-12-07T06:15:52;101684.0;;;2.34;100.0
34454;BME280;60061;52.080;5.312;2022-12-07T06:17:28;101689.0;;;2.32;100.0
34454;BME280;60061;52.080;5.312;2022-12-07T06:19:04;101689.0;;;2.33;100.0
34454;BME280;60061;52.080;5.312;2022-12-07T06:22:17;101691.0;;;2.29;100.0
34454;BME280;60061;52.080;5.312;2022-12-07T06:23:54;101692.0;;;2.34;100.0
34454;BME280;60061;52.080;5.312;2022-12-07T06:25:30;101689.0;;;2.31;100.0
34454;BME280;60061;52.080;5.312;2022-12-07T06:28:43;101694.0;;;2.37;100.0
34454;BME280;60061;52.080;5.312;2022-12-07T06:30:19;101694.0;;;2.25;100.0
34454;BME280;60061;52.080;5.312;2022-12-07T06:31:56;101693.0;;;2.23;100.0
34454;BME280;60061;52.080;5.312;2022-12-07T06:33:32;101687.0;;;2.31;100.0
34454;BME280;60061;52.080;5.312;2022-12-07T06:36:47;101690.0;;;2.25;100.0
34454;BME280;60061;52.080;5.312;2022-12-07T06:38:23;101697.0;;;2.29;100.0
34454;BME280;60061;52.080;5.312;2022-12-07T06:40:00;101692.0;;;2.39;100.0
34454;BME280;60061;52.080;5.312;2022-12-07T06:43:13;101692.0;;;2.46;100.0
34454;BME280;60061;52.080;5.312;2022-12-07T06:44:50;101697.0;;;2.41;100.0
34454;BME280;60061;52.080;5.312;2022-12-07T06:46:26;101693.0;;;2.39;100.0
34454;BME280;60061;52.080;5.312;2022-12-07T06:49:39;101691.0;;;2.33;100.0
34454;BME280;60061;52.080;5.312;2022-12-07T06:51:15;101696.0;;;2.33;100.0
34454;BME280;60061;52.080;5.312;2022-12-07T06:52:52;101696.0;;;2.27;100.0
34454;BME280;60061;52.080;5.312;2022-12-07T06:54:30;101695.0;;;2.29;100.0
34454;BME280;60061;52.080;5.312;2022-12-07T06:57:43;101690.0;;;2.16;100.0
34454;BME280;60061;52.080;5.312;2022-12-07T06:59:21;101695.0;;;2.23;100.0
34454;BME280;60061;52.080;5.312;2022-12-07T07:00:57;101689.0;;;2.25;100.0
34454;BME280;60061;52.080;5.312;2022-12-07T07:04:09;101689.0;;;2.25;100.0
34454;BME280;60061;52.080;5.312;2022-12-07T07:05:45;101694.0;;;2.25;100.0
34454;BME280;60061;52.080;5.312;2022-12-07T07:07:21;101690.0;;;2.31;100.0
34454;BME280;60061;52.080;5.312;2022-12-07T07:10:35;101690.0;;;2.33;100.0
34454;BME280;60061;52.080;5.312;2022-12-07T07:12:11;101690.0;;;2.25;100.0
34454;BME280;60061;52.080;5.312;2022-12-07T07:13:47;101687.0;;;2.27;100.0
34454;BME280;60061;52.080;5.312;2022-12-07T07:15:24;101695.0;;;2.32;100.0
34454;BME280;60061;52.080;5.312;2022-12-07T07:18:36;101690.0;;;2.36;100.0
34454;BME280;60061;52.080;5.312;2022-12-07T07:20:13;101692.0;;;2.33;100.0
34454;BME280;60061;52.080;5.312;2022-12-07T07:21:49;101688.0;;;2.29;100.0
34454;BME280;60061;52.080;5.312;2022-12-07T07:25:01;101687.0;;;2.31;100.0
34454;BME280;60061;52.080;5.312;2022-12-07T07:26:39;101697.0;;;2.19;100.0
34454;BME280;60061;52.080;5.312;2022-12-07T07:28:15;101693.0;;;2.15;100.0
34454;BME280;60061;52.080;5.312;2022-12-07T07:31:28;101688.0;;;2.09;100.0
34454;BME280;60061;52.080;5.312;2022-12-07T07:33:05;101692.0;;;2.12;100.0
34454;BME280;60061;52.080;5.312;2022-12-07T07:34:42;101688.0;;;2.07;100.0
34454;BME280;60061;52.080;5.312;2022-12-07T07:36:18;101691.0;;;2.08;100.0
34454;BME280;60061;52.080;5.312;2022-12-07T07:39:31;101694.0;;;2.13;100.0
34454;BME280;60061;52.080;5.312;2022-12-07T07:41:07;101692.0;;;2.06;100.0
34454;BME280;60061;52.080;5.312;2022-12-07T07:42:43;101696.0;;;2.0;100.0
34454;BME280;60061;52.080;5.312;2022-12-07T07:45:55;101694.0;;;1.95;100.0
34454;BME280;60061;52.080;5.312;2022-12-07T07:47:31;101695.0;;;1.92;100.0
34454;BME280;60061;52.080;5.312;2022-12-07T07:49:08;101699.0;;;1.95;100.0
34454;BME280;60061;52.080;5.312;2022-12-07T07:52:20;101697.0;;;1.93;100.0
34454;BME280;60061;52.080;5.312;2022-12-07T07:53:57;101705.0;;;1.9;100.0
34454;BME280;60061;52.080;5.312;2022-12-07T07:55:33;101703.0;;;1.85;100.0
34454;BME280;60061;52.080;5.312;2022-12-07T07:57:10;101697.0;;;1.88;100.0
34454;BME280;60061;52.080;5.312;2022-12-07T08:00:22;101699.0;;;2.02;100.0
34454;BME280;60061;52.080;5.312;2022-12-07T08:01:58;101694.0;;;2.06;100.0
34454;BME280;60061;52.080;5.312;2022-12-07T08:03:35;101699.0;;;2.09;100.0
34454;BME280;60061;52.080;5.312;2022-12-07T08:06:49;101695.0;;;1.95;100.0
34454;BME280;60061;52.080;5.312;2022-12-07T08:08:25;101700.0;;;1.94;100.0
34454;BME280;60061;52.080;5.312;2022-12-07T08:10:01;101701.0;;;1.95;100.0
34454;BME280;60061;52.080;5.312;2022-12-07T08:13:15;101706.0;;;1.81;100.0
34454;BME280;60061;52.080;5.312;2022-12-07T08:14:51;101701.0;;;1.92;100.0
34454;BME280;60061;52.080;5.312;2022-12-07T08:16:29;101710.0;;;1.77;100.0
34454;BME280;60061;52.080;5.312;2022-12-07T08:18:05;101709.0;;;1.77;100.0
34454;BME280;60061;52.080;5.312;2022-12-07T08:21:18;101707.0;;;1.72;100.0
34454;BME280;60061;52.080;5.312;2022-12-07T08:22:54;101709.0;;;1.72;100.0
34454;BME280;60061;52.080;5.312;2022-12-07T08:24:33;101717.0;;;1.75;100.0
34454;BME280;60061;52.080;5.312;2022-12-07T08:27:48;101728.0;;;1.77;100.0
34454;BME280;60061;52.080;5.312;2022-12-07T08:29:25;101724.0;;;1.85;100.0
34454;BME280;60061;52.080;5.312;2022-12-07T08:31:02;101722.0;;;1.78;100.0
34454;BME280;60061;52.080;5.312;2022-12-07T08:34:16;101727.0;;;2.02;100.0
34454;BME280;60061;52.080;5.312;2022-12-07T08:35:52;101733.0;;;1.74;100.0
34454;BME280;60061;52.080;5.312;2022-12-07T08:37:28;101732.0;;;1.95;100.0
34454;BME280;60061;52.080;5.312;2022-12-07T08:39:04;101721.0;;;2.06;100.0
34454;BME280;60061;52.080;5.312;2022-12-07T08:42:17;101716.0;;;2.14;100.0
34454;BME280;60061;52.080;5.312;2022-12-07T08:43:53;101715.0;;;2.32;100.0
34454;BME280;60061;52.080;5.312;2022-12-07T08:45:32;101716.0;;;2.38;100.0
34454;BME280;60061;52.080;5.312;2022-12-07T08:48:50;101710.0;;;2.48;100.0
34454;BME280;60061;52.080;5.312;2022-12-07T08:50:29;101708.0;;;2.58;100.0
34454;BME280;60061;52.080;5.312;2022-12-07T08:52:07;101714.0;;;2.66;100.0
34454;BME280;60061;52.080;5.312;2022-12-07T08:53:43;101712.0;;;2.69;100.0
34454;BME280;60061;52.080;5.312;2022-12-07T08:56:57;101712.0;;;2.74;100.0
34454;BME280;60061;52.080;5.312;2022-12-07T08:58:35;101714.0;;;2.66;100.0
34454;BME280;60061;52.080;5.312;2022-12-07T09:00:13;101719.0;;;2.65;100.0
34454;BME280;60061;52.080;5.312;2022-12-07T09:03:26;101714.0;;;2.74;100.0
34454;BME280;60061;52.080;5.312;2022-12-07T09:05:03;101716.0;;;2.69;100.0
34454;BME280;60061;52.080;5.312;2022-12-07T09:06:40;101709.0;;;2.71;100.0
34454;BME280;60061;52.080;5.312;2022-12-07T09:08:18;101713.0;;;2.8;100.0
34454;BME280;60061;52.080;5.312;2022-12-07T09:11:32;101714.0;;;2.86;100.0
34454;BME280;60061;52.080;5.312;2022-12-07T09:13:08;101712.0;;;2.87;100.0
34454;BME280;60061;52.080;5.312;2022-12-07T09:14:44;101710.0;;;2.85;100.0
34454;BME280;60061;52.080;5.312;2022-12-07T09:17:57;101719.0;;;2.93;100.0
34454;BME280;60061;52.080;5.312;2022-12-07T09:19:33;101716.0;;;2.97;100.0
34454;BME280;60061;52.080;5.312;2022-12-07T09:21:09;101711.0;;;2.87;100.0
34454;BME280;60061;52.080;5.312;2022-12-07T09:24:22;101706.0;;;2.99;100.0
34454;BME280;60061;52.080;5.312;2022-12-07T09:25:59;101707.0;;;3.02;100.0
34454;BME280;60061;52.080;5.312;2022-12-07T09:27:36;101702.0;;;3.21;100.0
34454;BME280;60061;52.080;5.312;2022-12-07T09:30:49;101709.0;;;3.09;100.0
34454;BME280;60061;52.080;5.312;2022-12-07T09:32:25;101713.0;;;3.17;100.0
34454;BME280;60061;52.080;5.312;2022-12-07T09:34:01;101707.0;;;3.38;100.0
34454;BME280;60061;52.080;5.312;2022-12-07T09:35:37;101707.0;;;3.43;100.0
34454;BME280;60061;52.080;5.312;2022-12-07T09:38:50;101707.0;;;3.52;100.0
34454;BME280;60061;52.080;5.312;2022-12-07T09:40:27;101700.0;;;3.63;100.0
34454;BME280;60061;52.080;5.312;2022-12-07T09:42:05;101701.0;;;3.71;100.0
34454;BME280;60061;52.080;5.312;2022-12-07T09:45:22;101699.0;;;3.83;100.0
34454;BME280;60061;52.080;5.312;2022-12-07T09:47:00;101702.0;;;3.88;100.0
34454;BME280;60061;52.080;5.312;2022-12-07T09:48:37;101702.0;;;3.82;100.0
34454;BME280;60061;52.080;5.312;2022-12-07T09:50:16;101700.0;;;3.93;100.0
34454;BME280;60061;52.080;5.312;2022-12-07T09:53:55;101708.0;;;4.12;100.0
34454;BME280;60061;52.080;5.312;2022-12-07T09:55:36;101701.0;;;4.21;100.0
34454;BME280;60061;52.080;5.312;2022-12-07T09:57:28;101705.0;;;4.2;100.0
34454;BME280;60061;52.080;5.312;2022-12-07T09:59:12;101705.0;;;4.2;100.0
34454;BME280;60061;52.080;5.312;2022-12-07T10:00:52;101705.0;;;4.26;100.0
34454;BME280;60061;52.080;5.312;2022-12-07T10:04:14;101703.0;;;4.45;100.0
34454;BME280;60061;52.080;5.312;2022-12-07T10:05:55;101705.0;;;4.5;100.0
34454;BME280;60061;52.080;5.312;2022-12-07T10:07:31;101701.0;;;4.43;100.0
34454;BME280;60061;52.080;5.312;2022-12-07T10:09:10;101700.0;;;4.51;100.0
34454;BME280;60061;52.080;5.312;2022-12-07T10:12:28;101695.0;;;4.62;100.0
34454;BME280;60061;52.080;5.312;2022-12-07T10:14:12;101686.0;;;4.78;100.0
34454;BME280;60061;52.080;5.312;2022-12-07T10:15:51;101685.0;;;4.71;100.0
34454;BME280;60061;52.080;5.312;2022-12-07T10:17:33;101687.0;;;4.7;100.0
34454;BME280;60061;52.080;5.312;2022-12-07T10:21:03;101678.0;;;4.76;100.0
34454;BME280;60061;52.080;5.312;2022-12-07T10:22:54;101677.0;;;4.79;100.0
34454;BME280;60061;52.080;5.312;2022-12-07T10:24:31;101668.0;;;4.88;100.0
34454;BME280;60061;52.080;5.312;2022-12-07T10:26:41;101667.0;;;4.88;100.0
34454;BME280;60061;52.080;5.312;2022-12-07T10:28:34;101667.0;;;5.01;100.0
34454;BME280;60061;52.080;5.312;2022-12-07T10:30:20;101670.0;;;5.12;100.0
34454;BME280;60061;52.080;5.312;2022-12-07T10:33:49;101665.0;;;5.26;100.0
34454;BME280;60061;52.080;5.312;2022-12-07T10:35:28;101664.0;;;5.32;100.0
34454;BME280;60061;52.080;5.312;2022-12-07T10:37:20;101663.0;;;5.33;100.0
34454;BME280;60061;52.080;5.312;2022-12-07T10:39:01;101664.0;;;5.28;100.0
34454;BME280;60061;52.080;5.312;2022-12-07T10:40:38;101659.0;;;5.3;100.0
34454;BME280;60061;52.080;5.312;2022-12-07T10:43:56;101655.0;;;5.46;100.0
34454;BME280;60061;52.080;5.312;2022-12-07T10:45:35;101663.0;;;5.47;100.0
34454;BME280;60061;52.080;5.312;2022-12-07T10:47:27;101655.0;;;5.52;100.0
34454;BME280;60061;52.080;5.312;2022-12-07T10:49:23;101656.0;;;5.55;100.0
34454;BME280;60061;52.080;5.312;2022-12-07T10:52:33;101652.0;;;5.65;100.0
34454;BME280;60061;52.080;5.312;2022-12-07T10:54:26;101651.0;;;5.63;100.0
34454;BME280;60061;52.080;5.312;2022-12-07T10:56:34;101645.0;;;5.57;100.0
34454;BME280;60061;52.080;5.312;2022-12-07T10:58:31;101642.0;;;5.67;100.0
34454;BME280;60061;52.080;5.312;2022-12-07T11:00:18;101638.0;;;5.71;100.0
34454;BME280;60061;52.080;5.312;2022-12-07T11:02:06;101637.0;;;5.85;100.0
34454;BME280;60061;52.080;5.312;2022-12-07T11:04:03;101639.0;;;5.9;100.0
34454;BME280;60061;52.080;5.312;2022-12-07T11:05:58;101636.0;;;6.09;100.0
34454;BME280;60061;52.080;5.312;2022-12-07T11:07:46;101632.0;;;6.21;100.0
34454;BME280;60061;52.080;5.312;2022-12-07T11:11:48;101641.0;;;6.27;100.0
34454;BME280;60061;52.080;5.312;2022-12-07T11:13:37;101642.0;;;6.33;100.0
34454;BME280;60061;52.080;5.312;2022-12-07T11:15:23;101637.0;;;6.4;100.0
34454;BME280;60061;52.080;5.312;2022-12-07T11:17:08;101638.0;;;6.42;100.0
34454;BME280;60061;52.080;5.312;2022-12-07T11:18:59;101635.0;;;6.44;100.0
34454;BME280;60061;52.080;5.312;2022-12-07T11:20:45;101634.0;;;6.48;100.0
34454;BME280;60061;52.080;5.312;2022-12-07T11:22:33;101636.0;;;6.49;100.0